sensor_id;sensor_type;location;lat;lon;timestamp;temperature;humidity
36214;DHT22;37652;50.400;30.628;2023-04-03T00:01:04;6.70;91.60
36214;DHT22;37652;50.400;30.628;2023-04-03T00:03:05;6.70;91.70
36214;DHT22;37652;50.400;30.628;2023-04-03T00:05:07;6.60;91.70
36214;DHT22;37652;50.400;30.628;2023-04-03T00:07:07;5.90;91.50
36214;DHT22;37652;50.400;30.628;2023-04-03T00:11:10;6.60;91.80
36214;DHT22;37652;50.400;30.628;2023-04-03T00:13:10;6.80;92.60
36214;DHT22;37652;50.400;30.628;2023-04-03T00:17:12;6.60;91.80
36214;DHT22;37652;50.400;30.628;2023-04-03T00:19:13;6.00;91.70
36214;DHT22;37652;50.400;30.628;2023-04-03T00:21:14;7.10;91.90
36214;DHT22;37652;50.400;30.628;2023-04-03T00:23:15;6.50;91.10
36214;DHT22;37652;50.400;30.628;2023-04-03T00:25:16;6.70;91.90
36214;DHT22;37652;50.400;30.628;2023-04-03T00:27:17;6.80;91.80
36214;DHT22;37652;50.400;30.628;2023-04-03T00:31:19;6.00;92.10
36214;DHT22;37652;50.400;30.628;2023-04-03T00:33:19;6.80;91.80
36214;DHT22;37652;50.400;30.628;2023-04-03T00:35:25;6.80;92.00
36214;DHT22;37652;50.400;30.628;2023-04-03T00:37:25;6.80;91.80
36214;DHT22;37652;50.400;30.628;2023-04-03T00:41:27;6.70;92.20
36214;DHT22;37652;50.400;30.628;2023-04-03T00:43:28;6.60;90.20
36214;DHT22;37652;50.400;30.628;2023-04-03T00:45:41;6.80;91.10
36214;DHT22;37652;50.400;30.628;2023-04-03T00:47:42;6.30;90.80
36214;DHT22;37652;50.400;30.628;2023-04-03T00:49:43;6.40;90.90
36214;DHT22;37652;50.400;30.628;2023-04-03T00:51:45;6.40;91.90
36214;DHT22;37652;50.400;30.628;2023-04-03T00:53:58;6.20;91.80
36214;DHT22;37652;50.400;30.628;2023-04-03T00:56:00;6.80;92.00
36214;DHT22;37652;50.400;30.628;2023-04-03T00:58:01;7.20;92.30
36214;DHT22;37652;50.400;30.628;2023-04-03T01:00:07;6.70;90.30
36214;DHT22;37652;50.400;30.628;2023-04-03T01:06:34;6.70;92.20
36214;DHT22;37652;50.400;30.628;2023-04-03T01:08:35;6.50;91.00
36214;DHT22;37652;50.400;30.628;2023-04-03T01:10:36;6.60;92.00
36214;DHT22;37652;50.400;30.628;2023-04-03T01:12:38;6.40;91.80
36214;DHT22;37652;50.400;30.628;2023-04-03T01:14:39;6.70;92.10
36214;DHT22;37652;50.400;30.628;2023-04-03T01:16:40;6.70;92.20
36214;DHT22;37652;50.400;30.628;2023-04-03T01:18:42;6.60;90.00
36214;DHT22;37652;50.400;30.628;2023-04-03T01:21:03;6.60;92.80
36214;DHT22;37652;50.400;30.628;2023-04-03T01:25:13;6.80;92.50
36214;DHT22;37652;50.400;30.628;2023-04-03T01:27:14;6.40;93.00
36214;DHT22;37652;50.400;30.628;2023-04-03T01:31:30;6.70;92.40
36214;DHT22;37652;50.400;30.628;2023-04-03T01:33:32;6.50;92.50
36214;DHT22;37652;50.400;30.628;2023-04-03T01:35:33;6.30;92.70
36214;DHT22;37652;50.400;30.628;2023-04-03T01:39:35;6.30;92.50
36214;DHT22;37652;50.400;30.628;2023-04-03T01:43:36;6.20;91.50
36214;DHT22;37652;50.400;30.628;2023-04-03T01:45:37;6.70;92.50
36214;DHT22;37652;50.400;30.628;2023-04-03T01:47:38;5.40;92.20
36214;DHT22;37652;50.400;30.628;2023-04-03T01:59:44;7.00;92.50
36214;DHT22;37652;50.400;30.628;2023-04-03T02:01:45;6.40;92.10
36214;DHT22;37652;50.400;30.628;2023-04-03T02:09:49;6.50;91.80
36214;DHT22;37652;50.400;30.628;2023-04-03T02:11:50;6.60;92.40
36214;DHT22;37652;50.400;30.628;2023-04-03T02:13:50;7.50;91.70
36214;DHT22;37652;50.400;30.628;2023-04-03T02:15:51;6.80;90.50
36214;DHT22;37652;50.400;30.628;2023-04-03T02:17:52;6.80;92.80
36214;DHT22;37652;50.400;30.628;2023-04-03T02:19:53;6.90;92.10
36214;DHT22;37652;50.400;30.628;2023-04-03T02:21:53;6.20;92.40
36214;DHT22;37652;50.400;30.628;2023-04-03T02:23:54;7.10;92.80
36214;DHT22;37652;50.400;30.628;2023-04-03T02:26:07;6.30;92.50
36214;DHT22;37652;50.400;30.628;2023-04-03T02:30:10;6.60;94.30
36214;DHT22;37652;50.400;30.628;2023-04-03T02:32:11;6.70;90.10
36214;DHT22;37652;50.400;30.628;2023-04-03T02:34:11;6.50;90.30
36214;DHT22;37652;50.400;30.628;2023-04-03T02:36:12;7.00;91.90
36214;DHT22;37652;50.400;30.628;2023-04-03T02:40:14;6.90;94.80
36214;DHT22;37652;50.400;30.628;2023-04-03T02:42:14;6.60;91.40
36214;DHT22;37652;50.400;30.628;2023-04-03T02:46:16;6.30;91.30
36214;DHT22;37652;50.400;30.628;2023-04-03T02:48:17;6.60;91.30
36214;DHT22;37652;50.400;30.628;2023-04-03T02:50:18;6.60;91.30
36214;DHT22;37652;50.400;30.628;2023-04-03T02:52:19;7.20;90.70
36214;DHT22;37652;50.400;30.628;2023-04-03T02:54:19;6.80;91.40
36214;DHT22;37652;50.400;30.628;2023-04-03T02:56:20;6.60;91.30
36214;DHT22;37652;50.400;30.628;2023-04-03T02:58:21;6.50;91.20
36214;DHT22;37652;50.400;30.628;2023-04-03T03:00:22;6.90;91.40
36214;DHT22;37652;50.400;30.628;2023-04-03T03:02:22;6.60;91.30
36214;DHT22;37652;50.400;30.628;2023-04-03T03:04:23;6.80;91.20
36214;DHT22;37652;50.400;30.628;2023-04-03T03:06:24;7.50;91.90
36214;DHT22;37652;50.400;30.628;2023-04-03T03:10:26;6.40;91.40
36214;DHT22;37652;50.400;30.628;2023-04-03T03:12:26;6.90;91.60
36214;DHT22;37652;50.400;30.628;2023-04-03T03:14:27;6.90;91.50
36214;DHT22;37652;50.400;30.628;2023-04-03T03:16:28;6.40;91.40
36214;DHT22;37652;50.400;30.628;2023-04-03T03:18:29;7.10;90.00
36214;DHT22;37652;50.400;30.628;2023-04-03T03:20:29;6.30;91.30
36214;DHT22;37652;50.400;30.628;2023-04-03T03:24:31;6.80;91.90
36214;DHT22;37652;50.400;30.628;2023-04-03T03:26:32;7.10;91.20
36214;DHT22;37652;50.400;30.628;2023-04-03T03:28:33;6.80;89.50
36214;DHT22;37652;50.400;30.628;2023-04-03T03:30:34;6.90;91.80
36214;DHT22;37652;50.400;30.628;2023-04-03T03:34:36;6.80;91.20
36214;DHT22;37652;50.400;30.628;2023-04-03T03:36:37;7.00;91.20
36214;DHT22;37652;50.400;30.628;2023-04-03T03:40:39;6.50;91.00
36214;DHT22;37652;50.400;30.628;2023-04-03T03:42:40;7.10;91.10
36214;DHT22;37652;50.400;30.628;2023-04-03T03:46:41;6.90;91.20
36214;DHT22;37652;50.400;30.628;2023-04-03T03:48:42;3.00;90.30
36214;DHT22;37652;50.400;30.628;2023-04-03T03:50:43;6.80;91.10
36214;DHT22;37652;50.400;30.628;2023-04-03T03:52:43;7.00;91.30
36214;DHT22;37652;50.400;30.628;2023-04-03T03:56:46;7.10;91.30
36214;DHT22;37652;50.400;30.628;2023-04-03T04:04:49;6.90;91.20
36214;DHT22;37652;50.400;30.628;2023-04-03T04:06:50;6.40;91.00
36214;DHT22;37652;50.400;30.628;2023-04-03T04:08:52;6.50;91.00
36214;DHT22;37652;50.400;30.628;2023-04-03T04:10:53;6.60;91.30
36214;DHT22;37652;50.400;30.628;2023-04-03T04:12:54;6.90;91.30
36214;DHT22;37652;50.400;30.628;2023-04-03T04:14:54;6.50;91.20
36214;DHT22;37652;50.400;30.628;2023-04-03T04:16:55;6.90;91.40
36214;DHT22;37652;50.400;30.628;2023-04-03T04:18:56;7.00;91.20
36214;DHT22;37652;50.400;30.628;2023-04-03T04:20:57;6.60;91.20
36214;DHT22;37652;50.400;30.628;2023-04-03T04:31:02;7.10;91.20
36214;DHT22;37652;50.400;30.628;2023-04-03T04:33:02;7.30;91.20
36214;DHT22;37652;50.400;30.628;2023-04-03T04:35:03;7.00;91.10
36214;DHT22;37652;50.400;30.628;2023-04-03T04:41:07;7.00;90.00
36214;DHT22;37652;50.400;30.628;2023-04-03T04:47:12;7.10;91.00
36214;DHT22;37652;50.400;30.628;2023-04-03T04:53:15;6.70;90.10
36214;DHT22;37652;50.400;30.628;2023-04-03T04:55:16;6.50;90.80
36214;DHT22;37652;50.400;30.628;2023-04-03T04:57:16;6.80;90.80
36214;DHT22;37652;50.400;30.628;2023-04-03T04:59:17;7.10;90.90
36214;DHT22;37652;50.400;30.628;2023-04-03T05:01:18;7.40;90.90
36214;DHT22;37652;50.400;30.628;2023-04-03T05:05:20;7.00;90.70
36214;DHT22;37652;50.400;30.628;2023-04-03T05:07:21;7.30;90.90
36214;DHT22;37652;50.400;30.628;2023-04-03T05:11:23;6.70;90.70
36214;DHT22;37652;50.400;30.628;2023-04-03T05:13:24;7.30;90.90
36214;DHT22;37652;50.400;30.628;2023-04-03T05:15:24;7.00;90.70
36214;DHT22;37652;50.400;30.628;2023-04-03T05:17:25;7.30;90.90
36214;DHT22;37652;50.400;30.628;2023-04-03T05:19:26;6.80;90.70
36214;DHT22;37652;50.400;30.628;2023-04-03T05:21:27;7.10;88.60
36214;DHT22;37652;50.400;30.628;2023-04-03T05:25:33;7.90;90.90
36214;DHT22;37652;50.400;30.628;2023-04-03T05:27:34;7.40;90.70
36214;DHT22;37652;50.400;30.628;2023-04-03T05:31:36;7.40;90.60
36214;DHT22;37652;50.400;30.628;2023-04-03T05:33:36;7.20;90.30
36214;DHT22;37652;50.400;30.628;2023-04-03T05:35:37;7.30;88.20
36214;DHT22;37652;50.400;30.628;2023-04-03T05:37:41;7.00;90.40
36214;DHT22;37652;50.400;30.628;2023-04-03T05:39:42;7.40;90.70
36214;DHT22;37652;50.400;30.628;2023-04-03T05:45:47;7.60;90.60
36214;DHT22;37652;50.400;30.628;2023-04-03T05:49:49;7.10;90.40
36214;DHT22;37652;50.400;30.628;2023-04-03T05:51:50;7.10;89.90
36214;DHT22;37652;50.400;30.628;2023-04-03T05:54:02;7.50;88.10
36214;DHT22;37652;50.400;30.628;2023-04-03T05:56:04;8.00;90.20
36214;DHT22;37652;50.400;30.628;2023-04-03T05:58:04;7.80;90.30
36214;DHT22;37652;50.400;30.628;2023-04-03T06:00:07;7.80;87.60
36214;DHT22;37652;50.400;30.628;2023-04-03T06:02:18;7.90;90.20
36214;DHT22;37652;50.400;30.628;2023-04-03T06:04:19;7.90;90.00
36214;DHT22;37652;50.400;30.628;2023-04-03T06:08:22;7.60;89.70
36214;DHT22;37652;50.400;30.628;2023-04-03T06:10:24;7.40;89.30
36214;DHT22;37652;50.400;30.628;2023-04-03T06:14:26;7.40;89.10
36214;DHT22;37652;50.400;30.628;2023-04-03T06:16:27;7.90;89.00
36214;DHT22;37652;50.400;30.628;2023-04-03T06:20:29;7.60;86.10
36214;DHT22;37652;50.400;30.628;2023-04-03T06:22:30;8.20;89.50
36214;DHT22;37652;50.400;30.628;2023-04-03T06:24:31;8.60;89.20
36214;DHT22;37652;50.400;30.628;2023-04-03T06:26:32;8.10;88.60
36214;DHT22;37652;50.400;30.628;2023-04-03T06:28:33;7.50;88.30
36214;DHT22;37652;50.400;30.628;2023-04-03T06:30:34;7.80;88.50
36214;DHT22;37652;50.400;30.628;2023-04-03T06:32:35;7.50;88.40
36214;DHT22;37652;50.400;30.628;2023-04-03T06:34:36;8.20;88.70
36214;DHT22;37652;50.400;30.628;2023-04-03T06:36:39;7.50;88.60
36214;DHT22;37652;50.400;30.628;2023-04-03T06:38:40;7.90;88.90
36214;DHT22;37652;50.400;30.628;2023-04-03T06:40:40;8.10;89.20
36214;DHT22;37652;50.400;30.628;2023-04-03T06:42:41;7.90;88.70
36214;DHT22;37652;50.400;30.628;2023-04-03T06:44:42;7.80;88.80
36214;DHT22;37652;50.400;30.628;2023-04-03T06:46:44;8.00;86.00
36214;DHT22;37652;50.400;30.628;2023-04-03T06:48:46;7.90;88.40
36214;DHT22;37652;50.400;30.628;2023-04-03T06:50:46;7.60;88.40
36214;DHT22;37652;50.400;30.628;2023-04-03T06:54:48;7.90;88.10
36214;DHT22;37652;50.400;30.628;2023-04-03T06:58:51;8.40;88.10
36214;DHT22;37652;50.400;30.628;2023-04-03T07:02:56;8.30;85.30
36214;DHT22;37652;50.400;30.628;2023-04-03T07:04:57;8.20;85.80
36214;DHT22;37652;50.400;30.628;2023-04-03T07:06:58;8.20;88.20
36214;DHT22;37652;50.400;30.628;2023-04-03T07:08:59;7.80;87.90
36214;DHT22;37652;50.400;30.628;2023-04-03T07:11:00;8.00;88.10
36214;DHT22;37652;50.400;30.628;2023-04-03T07:13:01;7.80;88.00
36214;DHT22;37652;50.400;30.628;2023-04-03T07:15:03;8.50;88.60
36214;DHT22;37652;50.400;30.628;2023-04-03T07:17:04;8.20;88.40
36214;DHT22;37652;50.400;30.628;2023-04-03T07:19:05;7.90;88.20
36214;DHT22;37652;50.400;30.628;2023-04-03T07:21:05;8.50;88.20
36214;DHT22;37652;50.400;30.628;2023-04-03T07:23:06;8.30;88.00
36214;DHT22;37652;50.400;30.628;2023-04-03T07:25:07;8.60;85.30
36214;DHT22;37652;50.400;30.628;2023-04-03T07:27:08;8.80;87.80
36214;DHT22;37652;50.400;30.628;2023-04-03T07:29:09;8.40;87.40
36214;DHT22;37652;50.400;30.628;2023-04-03T07:31:12;8.60;87.60
36214;DHT22;37652;50.400;30.628;2023-04-03T07:33:18;8.80;87.30
36214;DHT22;37652;50.400;30.628;2023-04-03T07:35:19;8.20;87.10
36214;DHT22;37652;50.400;30.628;2023-04-03T07:37:20;8.50;87.00
36214;DHT22;37652;50.400;30.628;2023-04-03T07:39:21;8.40;86.70
36214;DHT22;37652;50.400;30.628;2023-04-03T07:41:21;8.60;86.30
36214;DHT22;37652;50.400;30.628;2023-04-03T07:43:23;8.60;86.20
36214;DHT22;37652;50.400;30.628;2023-04-03T07:45:25;8.90;86.40
36214;DHT22;37652;50.400;30.628;2023-04-03T07:47:26;9.30;86.50
36214;DHT22;37652;50.400;30.628;2023-04-03T07:49:26;9.10;85.80
36214;DHT22;37652;50.400;30.628;2023-04-03T07:51:27;8.70;85.90
36214;DHT22;37652;50.400;30.628;2023-04-03T07:53:30;9.10;85.60
36214;DHT22;37652;50.400;30.628;2023-04-03T07:55:32;9.30;85.60
36214;DHT22;37652;50.400;30.628;2023-04-03T07:57:32;8.90;85.70
36214;DHT22;37652;50.400;30.628;2023-04-03T07:59:33;9.40;85.80
36214;DHT22;37652;50.400;30.628;2023-04-03T08:01:34;9.30;85.50
36214;DHT22;37652;50.400;30.628;2023-04-03T08:03:35;9.20;85.10
36214;DHT22;37652;50.400;30.628;2023-04-03T08:05:40;9.20;82.30
36214;DHT22;37652;50.400;30.628;2023-04-03T08:07:41;9.10;82.90
36214;DHT22;37652;50.400;30.628;2023-04-03T08:09:43;9.00;85.00
36214;DHT22;37652;50.400;30.628;2023-04-03T08:11:45;9.20;84.30
36214;DHT22;37652;50.400;30.628;2023-04-03T08:13:46;9.60;83.80
36214;DHT22;37652;50.400;30.628;2023-04-03T08:15:47;9.30;83.30
36214;DHT22;37652;50.400;30.628;2023-04-03T08:17:48;9.70;83.90
36214;DHT22;37652;50.400;30.628;2023-04-03T08:19:49;9.60;81.40
36214;DHT22;37652;50.400;30.628;2023-04-03T08:21:50;9.50;84.10
36214;DHT22;37652;50.400;30.628;2023-04-03T08:23:51;9.80;84.20
36214;DHT22;37652;50.400;30.628;2023-04-03T08:25:52;9.40;84.20
36214;DHT22;37652;50.400;30.628;2023-04-03T08:27:53;8.90;83.70
36214;DHT22;37652;50.400;30.628;2023-04-03T08:29:55;8.90;84.80
36214;DHT22;37652;50.400;30.628;2023-04-03T08:33:57;9.30;81.00
36214;DHT22;37652;50.400;30.628;2023-04-03T08:35:58;9.70;83.50
36214;DHT22;37652;50.400;30.628;2023-04-03T08:37:58;9.40;84.60
36214;DHT22;37652;50.400;30.628;2023-04-03T08:39:59;9.10;83.70
36214;DHT22;37652;50.400;30.628;2023-04-03T08:42:05;9.40;83.90
36214;DHT22;37652;50.400;30.628;2023-04-03T08:44:47;9.70;84.30
36214;DHT22;37652;50.400;30.628;2023-04-03T08:47:24;9.50;88.40
36214;DHT22;37652;50.400;30.628;2023-04-03T08:49:28;9.40;83.00
36214;DHT22;37652;50.400;30.628;2023-04-03T08:51:30;9.70;81.90
36214;DHT22;37652;50.400;30.628;2023-04-03T08:53:36;9.40;82.50
36214;DHT22;37652;50.400;30.628;2023-04-03T08:55:45;9.40;82.60
36214;DHT22;37652;50.400;30.628;2023-04-03T08:57:47;10.20;82.70
36214;DHT22;37652;50.400;30.628;2023-04-03T08:59:49;10.30;82.70
36214;DHT22;37652;50.400;30.628;2023-04-03T09:01:51;10.10;82.40
36214;DHT22;37652;50.400;30.628;2023-04-03T09:03:52;9.90;81.30
36214;DHT22;37652;50.400;30.628;2023-04-03T09:06:22;10.20;81.20
36214;DHT22;37652;50.400;30.628;2023-04-03T09:08:50;9.90;81.20
36214;DHT22;37652;50.400;30.628;2023-04-03T09:15:48;10.60;80.60
36214;DHT22;37652;50.400;30.628;2023-04-03T09:22:25;11.00;76.70
36214;DHT22;37652;50.400;30.628;2023-04-03T09:24:26;11.60;76.70
36214;DHT22;37652;50.400;30.628;2023-04-03T09:27:14;10.90;77.50
36214;DHT22;37652;50.400;30.628;2023-04-03T09:29:00;11.60;77.90
36214;DHT22;37652;50.400;30.628;2023-04-03T09:31:05;10.90;77.10
36214;DHT22;37652;50.400;30.628;2023-04-03T09:37:40;11.10;77.70
36214;DHT22;37652;50.400;30.628;2023-04-03T09:40:00;10.90;75.80
36214;DHT22;37652;50.400;30.628;2023-04-03T09:42:27;11.10;77.50
36214;DHT22;37652;50.400;30.628;2023-04-03T09:44:36;10.70;77.50
36214;DHT22;37652;50.400;30.628;2023-04-03T09:46:37;10.90;77.80
36214;DHT22;37652;50.400;30.628;2023-04-03T09:48:57;10.70;75.80
36214;DHT22;37652;50.400;30.628;2023-04-03T09:51:00;10.90;76.20
36214;DHT22;37652;50.400;30.628;2023-04-03T09:53:07;10.90;76.00
36214;DHT22;37652;50.400;30.628;2023-04-03T09:55:26;10.90;76.80
36214;DHT22;37652;50.400;30.628;2023-04-03T09:57:32;10.90;75.20
36214;DHT22;37652;50.400;30.628;2023-04-03T09:59:33;11.30;77.20
36214;DHT22;37652;50.400;30.628;2023-04-03T10:01:37;10.60;76.70
36214;DHT22;37652;50.400;30.628;2023-04-03T10:03:38;11.30;76.30
36214;DHT22;37652;50.400;30.628;2023-04-03T10:05:42;11.40;76.00
36214;DHT22;37652;50.400;30.628;2023-04-03T10:07:43;11.00;75.20
36214;DHT22;37652;50.400;30.628;2023-04-03T10:09:58;11.60;75.00
36214;DHT22;37652;50.400;30.628;2023-04-03T10:12:12;11.40;74.70
36214;DHT22;37652;50.400;30.628;2023-04-03T10:14:16;11.20;74.60
36214;DHT22;37652;50.400;30.628;2023-04-03T10:16:25;11.30;74.40
36214;DHT22;37652;50.400;30.628;2023-04-03T10:18:47;11.40;74.30
36214;DHT22;37652;50.400;30.628;2023-04-03T10:20:51;11.30;75.00
36214;DHT22;37652;50.400;30.628;2023-04-03T10:29:40;11.00;73.00
36214;DHT22;37652;50.400;30.628;2023-04-03T10:31:48;11.10;81.40
36214;DHT22;37652;50.400;30.628;2023-04-03T10:38:31;10.80;73.90
36214;DHT22;37652;50.400;30.628;2023-04-03T10:40:55;11.30;76.50
36214;DHT22;37652;50.400;30.628;2023-04-03T10:45:34;10.70;78.50
36214;DHT22;37652;50.400;30.628;2023-04-03T10:52:48;9.80;78.20
36214;DHT22;37652;50.400;30.628;2023-04-03T10:55:00;10.20;80.50
36214;DHT22;37652;50.400;30.628;2023-04-03T10:57:08;9.80;80.60
36214;DHT22;37652;50.400;30.628;2023-04-03T11:01:26;9.60;80.70
36214;DHT22;37652;50.400;30.628;2023-04-03T11:03:44;10.40;81.40
36214;DHT22;37652;50.400;30.628;2023-04-03T11:05:50;10.00;81.70
36214;DHT22;37652;50.400;30.628;2023-04-03T11:07:55;9.70;81.60
36214;DHT22;37652;50.400;30.628;2023-04-03T11:10:02;9.70;79.60
36214;DHT22;37652;50.400;30.628;2023-04-03T11:14:33;9.70;82.60
36214;DHT22;37652;50.400;30.628;2023-04-03T11:16:40;9.70;79.90
36214;DHT22;37652;50.400;30.628;2023-04-03T11:19:28;9.90;82.30
36214;DHT22;37652;50.400;30.628;2023-04-03T11:21:16;10.10;80.50
36214;DHT22;37652;50.400;30.628;2023-04-03T11:23:25;10.30;82.10
36214;DHT22;37652;50.400;30.628;2023-04-03T11:25:30;10.60;81.60
36214;DHT22;37652;50.400;30.628;2023-04-03T11:27:46;10.30;80.90
36214;DHT22;37652;50.400;30.628;2023-04-03T11:29:50;10.90;80.50
36214;DHT22;37652;50.400;30.628;2023-04-03T11:32:27;10.70;80.10
36214;DHT22;37652;50.400;30.628;2023-04-03T11:34:42;10.20;80.00
36214;DHT22;37652;50.400;30.628;2023-04-03T11:36:52;10.70;80.30
36214;DHT22;37652;50.400;30.628;2023-04-03T11:39:19;10.30;80.30
36214;DHT22;37652;50.400;30.628;2023-04-03T11:41:31;10.70;80.40
36214;DHT22;37652;50.400;30.628;2023-04-03T11:43:33;10.80;80.80
36214;DHT22;37652;50.400;30.628;2023-04-03T11:48:02;10.10;81.00
36214;DHT22;37652;50.400;30.628;2023-04-03T11:50:04;10.30;78.20
36214;DHT22;37652;50.400;30.628;2023-04-03T11:54:45;10.20;81.50
36214;DHT22;37652;50.400;30.628;2023-04-03T11:56:46;10.10;81.30
36214;DHT22;37652;50.400;30.628;2023-04-03T12:01:11;10.30;82.30
36214;DHT22;37652;50.400;30.628;2023-04-03T12:05:29;9.50;83.20
36214;DHT22;37652;50.400;30.628;2023-04-03T12:07:30;8.90;83.60
36214;DHT22;37652;50.400;30.628;2023-04-03T12:20:55;8.40;82.90
36214;DHT22;37652;50.400;30.628;2023-04-03T12:23:23;8.30;83.00
36214;DHT22;37652;50.400;30.628;2023-04-03T12:25:50;9.00;88.00
36214;DHT22;37652;50.400;30.628;2023-04-03T12:27:51;8.30;88.00
36214;DHT22;37652;50.400;30.628;2023-04-03T12:30:13;7.90;83.00
36214;DHT22;37652;50.400;30.628;2023-04-03T12:37:09;8.30;82.90
36214;DHT22;37652;50.400;30.628;2023-04-03T12:47:43;8.00;83.70
36214;DHT22;37652;50.400;30.628;2023-04-03T12:49:45;8.30;88.10
36214;DHT22;37652;50.400;30.628;2023-04-03T12:51:46;8.60;84.10
36214;DHT22;37652;50.400;30.628;2023-04-03T12:53:49;7.90;83.90
36214;DHT22;37652;50.400;30.628;2023-04-03T12:55:57;7.70;87.90
36214;DHT22;37652;50.400;30.628;2023-04-03T12:58:26;7.70;88.60
36214;DHT22;37652;50.400;30.628;2023-04-03T13:00:33;7.60;89.10
36214;DHT22;37652;50.400;30.628;2023-04-03T13:04:38;7.50;89.50
36214;DHT22;37652;50.400;30.628;2023-04-03T13:06:41;7.60;84.40
36214;DHT22;37652;50.400;30.628;2023-04-03T13:11:24;6.80;87.10
36214;DHT22;37652;50.400;30.628;2023-04-03T13:15:27;7.50;85.60
36214;DHT22;37652;50.400;30.628;2023-04-03T13:19:30;7.30;85.30
36214;DHT22;37652;50.400;30.628;2023-04-03T13:21:33;7.10;85.90
36214;DHT22;37652;50.400;30.628;2023-04-03T13:23:38;7.20;85.20
36214;DHT22;37652;50.400;30.628;2023-04-03T13:25:42;7.40;90.70
36214;DHT22;37652;50.400;30.628;2023-04-03T13:27:45;6.90;89.50
36214;DHT22;37652;50.400;30.628;2023-04-03T13:29:51;7.20;90.80
36214;DHT22;37652;50.400;30.628;2023-04-03T13:31:54;7.10;86.40
36214;DHT22;37652;50.400;30.628;2023-04-03T13:38:25;7.10;90.20
36214;DHT22;37652;50.400;30.628;2023-04-03T13:40:26;7.00;86.10
36214;DHT22;37652;50.400;30.628;2023-04-03T13:42:30;7.00;85.70
36214;DHT22;37652;50.400;30.628;2023-04-03T13:44:34;7.20;87.20
36214;DHT22;37652;50.400;30.628;2023-04-03T13:48:56;7.30;90.00
36214;DHT22;37652;50.400;30.628;2023-04-03T13:51:03;6.80;84.90
36214;DHT22;37652;50.400;30.628;2023-04-03T13:53:12;6.30;90.00
36214;DHT22;37652;50.400;30.628;2023-04-03T13:57:18;6.40;86.60
36214;DHT22;37652;50.400;30.628;2023-04-03T13:59:35;6.90;90.70
36214;DHT22;37652;50.400;30.628;2023-04-03T14:04:00;6.40;86.40
36214;DHT22;37652;50.400;30.628;2023-04-03T14:10:07;6.60;90.90
36214;DHT22;37652;50.400;30.628;2023-04-03T14:14:24;6.40;86.20
36214;DHT22;37652;50.400;30.628;2023-04-03T14:16:27;6.50;86.70
36214;DHT22;37652;50.400;30.628;2023-04-03T14:18:30;6.50;89.20
36214;DHT22;37652;50.400;30.628;2023-04-03T14:22:32;6.20;90.70
36214;DHT22;37652;50.400;30.628;2023-04-03T14:28:37;6.40;90.70
36214;DHT22;37652;50.400;30.628;2023-04-03T14:30:40;5.90;88.50
36214;DHT22;37652;50.400;30.628;2023-04-03T14:34:43;6.20;91.20
36214;DHT22;37652;50.400;30.628;2023-04-03T14:36:44;5.90;90.80
36214;DHT22;37652;50.400;30.628;2023-04-03T14:38:46;6.40;87.70
36214;DHT22;37652;50.400;30.628;2023-04-03T14:40:47;6.30;87.90
36214;DHT22;37652;50.400;30.628;2023-04-03T14:42:48;6.30;91.10
36214;DHT22;37652;50.400;30.628;2023-04-03T14:44:49;5.50;86.80
36214;DHT22;37652;50.400;30.628;2023-04-03T14:46:50;5.60;91.20
36214;DHT22;37652;50.400;30.628;2023-04-03T14:50:53;5.90;86.80
36214;DHT22;37652;50.400;30.628;2023-04-03T14:52:56;6.10;91.40
36214;DHT22;37652;50.400;30.628;2023-04-03T14:57:00;5.90;86.70
36214;DHT22;37652;50.400;30.628;2023-04-03T15:03:03;5.40;94.30
36214;DHT22;37652;50.400;30.628;2023-04-03T15:05:06;5.40;91.10
36214;DHT22;37652;50.400;30.628;2023-04-03T15:07:08;6.70;87.40
36214;DHT22;37652;50.400;30.628;2023-04-03T15:09:19;5.60;87.00
36214;DHT22;37652;50.400;30.628;2023-04-03T15:13:23;5.50;87.40
36214;DHT22;37652;50.400;30.628;2023-04-03T15:15:24;5.60;87.50
36214;DHT22;37652;50.400;30.628;2023-04-03T15:17:28;5.20;94.10
36214;DHT22;37652;50.400;30.628;2023-04-03T15:19:32;5.40;90.20
36214;DHT22;37652;50.400;30.628;2023-04-03T15:21:36;6.10;91.30
36214;DHT22;37652;50.400;30.628;2023-04-03T15:27:41;5.60;91.00
36214;DHT22;37652;50.400;30.628;2023-04-03T15:29:44;5.40;87.60
36214;DHT22;37652;50.400;30.628;2023-04-03T15:31:45;5.70;90.90
36214;DHT22;37652;50.400;30.628;2023-04-03T15:35:47;5.10;90.70
36214;DHT22;37652;50.400;30.628;2023-04-03T15:37:47;4.90;89.00
36214;DHT22;37652;50.400;30.628;2023-04-03T15:39:48;5.40;90.80
36214;DHT22;37652;50.400;30.628;2023-04-03T15:41:49;6.10;89.40
36214;DHT22;37652;50.400;30.628;2023-04-03T15:45:56;5.50;88.20
36214;DHT22;37652;50.400;30.628;2023-04-03T15:49:59;5.30;90.90
36214;DHT22;37652;50.400;30.628;2023-04-03T15:54:01;5.30;87.80
36214;DHT22;37652;50.400;30.628;2023-04-03T15:58:05;5.00;90.90
36214;DHT22;37652;50.400;30.628;2023-04-03T16:00:06;5.30;90.60
36214;DHT22;37652;50.400;30.628;2023-04-03T16:02:07;5.10;87.90
36214;DHT22;37652;50.400;30.628;2023-04-03T16:04:09;4.90;90.80
36214;DHT22;37652;50.400;30.628;2023-04-03T16:06:19;5.10;87.40
36214;DHT22;37652;50.400;30.628;2023-04-03T16:08:20;4.70;90.60
36214;DHT22;37652;50.400;30.628;2023-04-03T16:10:21;5.10;90.90
36214;DHT22;37652;50.400;30.628;2023-04-03T16:16:25;4.70;90.70
36214;DHT22;37652;50.400;30.628;2023-04-03T16:18:28;4.70;90.70
36214;DHT22;37652;50.400;30.628;2023-04-03T16:20:30;4.90;87.60
36214;DHT22;37652;50.400;30.628;2023-04-03T16:22:31;5.10;90.80
36214;DHT22;37652;50.400;30.628;2023-04-03T16:32:37;4.80;87.40
36214;DHT22;37652;50.400;30.628;2023-04-03T16:36:40;4.80;90.70
36214;DHT22;37652;50.400;30.628;2023-04-03T16:38:41;4.80;89.50
36214;DHT22;37652;50.400;30.628;2023-04-03T16:40:42;4.90;91.00
36214;DHT22;37652;50.400;30.628;2023-04-03T16:42:43;4.70;90.00
36214;DHT22;37652;50.400;30.628;2023-04-03T16:44:44;5.10;91.00
36214;DHT22;37652;50.400;30.628;2023-04-03T16:48:46;5.10;91.10
36214;DHT22;37652;50.400;30.628;2023-04-03T16:50:48;4.90;91.10
36214;DHT22;37652;50.400;30.628;2023-04-03T16:52:49;5.10;88.10
36214;DHT22;37652;50.400;30.628;2023-04-03T17:00:57;4.50;90.70
36214;DHT22;37652;50.400;30.628;2023-04-03T17:02:58;4.20;90.80
36214;DHT22;37652;50.400;30.628;2023-04-03T17:04:59;4.40;89.10
36214;DHT22;37652;50.400;30.628;2023-04-03T17:07:00;4.30;88.70
36214;DHT22;37652;50.400;30.628;2023-04-03T17:09:06;4.60;93.30
36214;DHT22;37652;50.400;30.628;2023-04-03T17:13:08;4.80;90.30
36214;DHT22;37652;50.400;30.628;2023-04-03T17:15:08;4.60;87.10
36214;DHT22;37652;50.400;30.628;2023-04-03T17:17:10;4.10;90.80
36214;DHT22;37652;50.400;30.628;2023-04-03T17:19:11;4.60;87.60
36214;DHT22;37652;50.400;30.628;2023-04-03T17:21:13;4.90;88.90
36214;DHT22;37652;50.400;30.628;2023-04-03T17:25:15;4.60;91.00